Time,TemperatureF,DewpointF,PressureIn,WindDirection,WindDirectionDegrees,WindSpeedMPH,WindSpeedGustMPH,Humidity,HourlyPrecipIn,Conditions,Clouds,dailyrainin,SoftwareType,DateUTC
2014-02-19 00:02:00,28.9,24.1,29.60,SE,135,0.0,0.0,82,0.00,,,0.08,meteohub,2014-02-19 05:02:00,
2014-02-19 00:07:00,29.1,24.3,29.60,SE,135,0.0,0.0,82,0.00,,,0.00,meteohub,2014-02-19 05:07:00,
2014-02-19 00:12:00,28.9,24.1,29.60,SE,135,0.0,0.0,82,0.00,,,0.00,meteohub,2014-02-19 05:12:00,
2014-02-19 00:17:00,28.6,23.7,29.60,SE,135,0.0,0.0,82,0.00,,,0.00,meteohub,2014-02-19 05:17:00,
2014-02-19 00:22:00,28.4,23.5,29.60,SE,135,0.0,0.0,82,0.00,,,0.00,meteohub,2014-02-19 05:22:00,
2014-02-19 00:27:00,28.2,23.7,29.58,SE,135,0.0,0.0,83,0.00,,,0.00,meteohub,2014-02-19 05:27:00,
2014-02-19 00:32:00,28.4,24.3,29.60,West,270,0.0,0.0,84,0.00,,,0.00,meteohub,2014-02-19 05:32:00,
2014-02-19 00:37:00,28.8,24.6,29.59,NE,45,1.0,2.0,84,0.00,,,0.00,meteohub,2014-02-19 05:37:00,
2014-02-19 00:42:00,28.8,24.6,29.60,South,180,0.0,2.0,84,0.00,,,0.00,meteohub,2014-02-19 05:42:00,
2014-02-19 00:47:00,28.8,24.6,29.59,South,180,0.0,2.0,84,0.00,,,0.00,meteohub,2014-02-19 05:47:00,
2014-02-19 00:52:00,28.9,24.8,29.60,SE,135,3.0,3.0,84,0.00,,,0.00,meteohub,2014-02-19 05:52:00,
2014-02-19 00:57:00,29.1,25.0,29.61,South,180,0.0,3.0,84,0.00,,,0.00,meteohub,2014-02-19 05:57:00,
2014-02-19 01:02:00,29.7,25.3,29.60,SE,135,0.0,3.0,84,0.00,,,0.00,meteohub,2014-02-19 06:02:00,
2014-02-19 01:07:00,29.7,25.2,29.61,SE,135,0.0,3.0,83,0.00,,,0.00,meteohub,2014-02-19 06:07:00,
2014-02-19 01:12:00,29.7,25.2,29.61,North,0,0.0,2.0,83,0.00,,,0.00,meteohub,2014-02-19 06:12:00,
2014-02-19 01:17:00,30.0,25.5,29.61,East,90,0.0,1.0,83,0.00,,,0.00,meteohub,2014-02-19 06:17:00,
2014-02-19 01:22:00,30.4,25.9,29.61,NE,45,0.0,1.0,83,0.00,,,0.00,meteohub,2014-02-19 06:22:00,
2014-02-19 01:27:00,30.6,25.7,29.61,SE,135,2.0,3.0,82,0.00,,,0.00,meteohub,2014-02-19 06:27:00,
2014-02-19 01:32:00,31.1,25.9,29.61,SE,135,2.0,3.0,81,0.00,,,0.00,meteohub,2014-02-19 06:32:00,
2014-02-19 01:37:00,31.3,25.9,29.61,East,90,2.0,3.0,80,0.00,,,0.00,meteohub,2014-02-19 06:37:00,
2014-02-19 01:42:00,31.3,25.9,29.62,SE,135,2.0,3.0,80,0.00,,,0.00,meteohub,2014-02-19 06:42:00,
2014-02-19 01:47:00,31.3,25.9,29.62,SE,135,1.0,3.0,80,0.00,,,0.00,meteohub,2014-02-19 06:47:00,
2014-02-19 01:52:00,30.9,25.5,29.60,SE,135,0.0,2.0,80,0.00,,,0.00,meteohub,2014-02-19 06:52:00,
2014-02-19 01:57:00,30.7,25.3,29.62,SE,135,0.0,2.0,80,0.00,,,0.00,meteohub,2014-02-19 06:57:00,
2014-02-19 02:02:00,30.9,25.5,29.62,SE,135,2.0,3.0,80,0.00,,,0.00,meteohub,2014-02-19 07:02:00,
2014-02-19 02:07:00,30.9,25.5,29.60,SE,135,0.0,3.0,80,0.00,,,0.00,meteohub,2014-02-19 07:07:00,
2014-02-19 02:12:00,31.1,25.7,29.60,SE,135,0.0,3.0,80,0.00,,,0.00,meteohub,2014-02-19 07:12:00,
2014-02-19 02:17:00,31.1,25.3,29.59,East,90,3.0,3.0,79,0.00,,,0.00,meteohub,2014-02-19 07:17:00,
2014-02-19 02:22:00,31.5,25.7,29.58,SE,135,3.0,3.0,79,0.00,,,0.00,meteohub,2014-02-19 07:22:00,
2014-02-19 02:27:00,31.3,25.5,29.57,North,0,1.0,3.0,79,0.00,,,0.00,meteohub,2014-02-19 07:27:00,
2014-02-19 02:32:00,31.1,25.3,29.57,NW,315,2.0,3.0,79,0.00,,,0.00,meteohub,2014-02-19 07:32:00,
2014-02-19 02:37:00,31.3,25.9,29.57,SE,135,2.0,3.0,80,0.00,,,0.00,meteohub,2014-02-19 07:37:00,
2014-02-19 02:42:00,31.6,26.2,29.56,East,90,2.0,3.0,80,0.00,,,0.00,meteohub,2014-02-19 07:42:00,
2014-02-19 02:47:00,31.6,25.9,29.56,South,180,2.0,3.0,79,0.00,,,0.00,meteohub,2014-02-19 07:47:00,
2014-02-19 02:52:00,31.8,26.1,29.56,East,90,2.0,3.0,79,0.00,,,0.00,meteohub,2014-02-19 07:52:00,
2014-02-19 02:57:00,31.8,26.1,29.55,SE,135,3.0,4.0,79,0.00,,,0.00,meteohub,2014-02-19 07:57:00,
2014-02-19 03:02:00,31.6,25.9,29.55,SE,135,3.0,4.0,79,0.00,,,0.00,meteohub,2014-02-19 08:02:00,
2014-02-19 03:07:00,31.5,25.3,29.55,SE,135,3.0,4.0,78,0.00,,,0.00,meteohub,2014-02-19 08:07:00,
2014-02-19 03:12:00,31.6,25.5,29.55,SE,135,2.0,3.0,78,0.00,,,0.00,meteohub,2014-02-19 08:12:00,
2014-02-19 03:17:00,31.6,25.5,29.55,ENE,68,2.0,3.0,78,0.00,,,0.00,meteohub,2014-02-19 08:17:00,
2014-02-19 03:22:00,31.6,25.5,29.54,ENE,68,2.0,3.0,78,0.00,,,0.00,meteohub,2014-02-19 08:22:00,
2014-02-19 03:27:00,31.3,25.2,29.54,SE,135,0.0,3.0,78,0.00,,,0.00,meteohub,2014-02-19 08:27:00,
2014-02-19 03:32:00,31.1,24.8,29.54,South,180,4.0,4.0,77,0.00,,,0.00,meteohub,2014-02-19 08:32:00,
2014-02-19 03:37:00,31.3,25.0,29.54,SE,135,2.0,4.0,77,0.00,,,0.00,meteohub,2014-02-19 08:37:00,
2014-02-19 03:42:00,31.1,24.8,29.53,SE,135,2.0,4.0,77,0.00,,,0.00,meteohub,2014-02-19 08:42:00,
2014-02-19 03:47:00,30.9,24.8,29.53,East,90,1.0,4.0,78,0.00,,,0.00,meteohub,2014-02-19 08:47:00,
2014-02-19 03:52:00,30.9,24.8,29.53,East,90,0.0,2.0,78,0.00,,,0.00,meteohub,2014-02-19 08:52:00,
2014-02-19 03:57:00,30.6,24.4,29.53,South,180,2.0,2.0,78,0.00,,,0.00,meteohub,2014-02-19 08:57:00,
2014-02-19 04:02:00,30.6,24.4,29.51,South,180,2.0,2.0,78,0.00,,,0.00,meteohub,2014-02-19 09:02:00,
2014-02-19 04:07:00,30.6,24.4,29.51,South,180,2.0,2.0,78,0.00,,,0.00,meteohub,2014-02-19 09:07:00,
2014-02-19 04:12:00,30.2,24.4,29.51,SE,135,2.0,2.0,79,0.00,,,0.00,meteohub,2014-02-19 09:12:00,
2014-02-19 04:17:00,30.0,24.3,29.50,SE,135,2.0,2.0,79,0.00,,,0.00,meteohub,2014-02-19 09:17:00,
2014-02-19 04:22:00,29.8,24.4,29.49,East,90,2.0,2.0,80,0.00,,,0.00,meteohub,2014-02-19 09:22:00,
2014-02-19 04:27:00,29.7,24.3,29.49,SE,135,2.0,2.0,80,0.00,,,0.00,meteohub,2014-02-19 09:27:00,
2014-02-19 04:32:00,29.3,24.3,29.49,SE,135,2.0,2.0,81,0.00,,,0.00,meteohub,2014-02-19 09:32:00,
2014-02-19 04:37:00,29.3,24.3,29.48,South,180,2.0,2.0,81,0.00,,,0.00,meteohub,2014-02-19 09:37:00,
2014-02-19 04:42:00,29.1,24.3,29.48,South,180,2.0,2.0,82,0.00,,,0.00,meteohub,2014-02-19 09:42:00,
2014-02-19 04:47:00,28.9,24.1,29.48,SE,135,0.0,2.0,82,0.00,,,0.00,meteohub,2014-02-19 09:47:00,
2014-02-19 04:52:00,28.9,24.4,29.48,SE,135,2.0,2.0,83,0.00,,,0.00,meteohub,2014-02-19 09:52:00,
2014-02-19 04:57:00,29.1,24.6,29.47,SE,135,2.0,2.0,83,0.00,,,0.00,meteohub,2014-02-19 09:57:00,
2014-02-19 05:02:00,29.1,24.6,29.47,East,90,0.0,2.0,83,0.00,,,0.00,meteohub,2014-02-19 10:02:00,
2014-02-19 05:07:00,29.1,24.6,29.46,East,90,0.0,2.0,83,0.00,,,0.00,meteohub,2014-02-19 10:07:00,
2014-02-19 05:12:00,28.8,24.3,29.46,West,270,2.0,2.0,83,0.00,,,0.00,meteohub,2014-02-19 10:12:00,
2014-02-19 05:17:00,28.8,24.6,29.46,South,180,2.0,2.0,84,0.00,,,0.00,meteohub,2014-02-19 10:17:00,
2014-02-19 05:22:00,28.8,24.6,29.46,South,180,0.0,2.0,84,0.00,,,0.00,meteohub,2014-02-19 10:22:00,
2014-02-19 05:27:00,28.6,24.4,29.46,NW,315,0.0,2.0,84,0.00,,,0.00,meteohub,2014-02-19 10:27:00,
2014-02-19 05:32:00,28.4,24.3,29.46,SE,135,0.0,2.0,84,0.00,,,0.00,meteohub,2014-02-19 10:32:00,
2014-02-19 05:37:00,28.4,24.3,29.45,SE,135,0.0,2.0,84,0.00,,,0.00,meteohub,2014-02-19 10:37:00,
2014-02-19 05:42:00,28.2,24.1,29.45,SE,135,0.0,2.0,84,0.00,,,0.00,meteohub,2014-02-19 10:42:00,
2014-02-19 05:47:00,28.0,23.9,29.45,SE,135,2.0,2.0,84,0.00,,,0.00,meteohub,2014-02-19 10:47:00,
2014-02-19 05:52:00,28.0,23.9,29.46,West,270,0.0,2.0,84,0.00,,,0.00,meteohub,2014-02-19 10:52:00,
2014-02-19 05:57:00,28.0,24.1,29.46,West,270,0.0,2.0,85,0.00,,,0.00,meteohub,2014-02-19 10:57:00,
2014-02-19 06:02:00,27.9,23.7,29.44,West,270,0.0,2.0,84,0.00,,,0.00,meteohub,2014-02-19 11:02:00,
2014-02-19 06:07:00,27.9,23.7,29.44,West,270,0.0,1.0,84,0.00,,,0.00,meteohub,2014-02-19 11:07:00,
2014-02-19 06:12:00,27.9,24.3,29.45,West,270,1.0,0.0,86,0.00,,,0.00,meteohub,2014-02-19 11:12:00,
2014-02-19 06:17:00,27.7,24.1,29.44,West,270,0.0,2.0,86,0.00,,,0.00,meteohub,2014-02-19 11:17:00,
2014-02-19 06:22:00,27.3,23.4,29.44,West,270,0.0,2.0,85,0.00,,,0.00,meteohub,2014-02-19 11:22:00,
2014-02-19 06:27:00,27.1,23.5,29.44,West,270,0.0,2.0,86,0.00,,,0.00,meteohub,2014-02-19 11:27:00,
2014-02-19 06:32:00,27.0,23.4,29.44,West,270,0.0,0.0,86,0.00,,,0.00,meteohub,2014-02-19 11:32:00,
2014-02-19 06:37:00,26.8,22.8,29.44,West,270,0.0,0.0,85,0.00,,,0.00,meteohub,2014-02-19 11:37:00,
2014-02-19 06:42:00,26.8,23.2,29.43,SE,135,0.0,0.0,86,0.00,,,0.00,meteohub,2014-02-19 11:42:00,
2014-02-19 06:47:00,27.0,23.5,29.43,SE,135,2.0,0.0,87,0.00,,,0.00,meteohub,2014-02-19 11:47:00,
2014-02-19 06:52:00,27.3,24.4,29.43,SE,135,2.0,2.0,89,0.00,,,0.00,meteohub,2014-02-19 11:52:00,
2014-02-19 06:57:00,28.0,25.2,29.41,SE,135,3.0,3.0,89,0.00,,,0.00,meteohub,2014-02-19 11:57:00,
2014-02-19 07:02:00,28.2,25.3,29.41,SE,135,2.0,3.0,89,0.00,,,0.00,meteohub,2014-02-19 12:02:00,
2014-02-19 07:07:00,28.2,25.3,29.41,SW,225,1.0,3.0,89,0.00,,,0.00,meteohub,2014-02-19 12:07:00,
2014-02-19 07:12:00,28.2,25.3,29.42,SE,135,1.0,3.0,89,0.00,,,0.00,meteohub,2014-02-19 12:12:00,
2014-02-19 07:17:00,28.6,25.7,29.41,SE,135,2.0,3.0,89,0.00,,,0.00,meteohub,2014-02-19 12:17:00,
2014-02-19 07:22:00,29.3,26.4,29.41,SE,135,1.0,3.0,89,0.00,,,0.00,meteohub,2014-02-19 12:22:00,
2014-02-19 07:27:00,29.8,27.0,29.40,SW,225,0.0,3.0,89,0.00,,,0.00,meteohub,2014-02-19 12:27:00,
2014-02-19 07:32:00,30.6,27.5,29.40,South,180,0.0,2.0,88,0.00,,,0.00,meteohub,2014-02-19 12:32:00,
2014-02-19 07:37:00,31.5,28.0,29.40,SE,135,0.0,2.0,87,0.00,,,0.00,meteohub,2014-02-19 12:37:00,
2014-02-19 07:42:00,32.2,28.8,29.40,West,270,0.0,2.0,87,0.00,,,0.00,meteohub,2014-02-19 12:42:00,
2014-02-19 07:47:00,32.9,28.6,29.39,East,90,4.0,0.0,84,0.00,,,0.00,meteohub,2014-02-19 12:47:00,
2014-02-19 07:52:00,33.4,28.2,29.39,SE,135,4.0,4.0,81,0.00,,,0.00,meteohub,2014-02-19 12:52:00,
2014-02-19 07:57:00,34.0,28.2,29.39,East,90,2.0,4.0,79,0.00,,,0.00,meteohub,2014-02-19 12:57:00,
2014-02-19 08:02:00,35.1,28.6,29.39,SSE,158,0.0,4.0,77,0.00,,,0.00,meteohub,2014-02-19 13:02:00,
2014-02-19 08:07:00,35.8,28.6,29.39,East,90,2.0,4.0,75,0.00,,,0.00,meteohub,2014-02-19 13:07:00,
2014-02-19 08:12:00,35.8,28.0,29.39,SE,135,2.0,3.0,73,0.00,,,0.00,meteohub,2014-02-19 13:12:00,
2014-02-19 08:17:00,36.5,28.4,29.39,SE,135,2.0,3.0,72,0.00,,,0.00,meteohub,2014-02-19 13:17:00,
2014-02-19 08:22:00,37.6,29.1,29.38,SE,135,2.0,3.0,71,0.00,,,0.00,meteohub,2014-02-19 13:22:00,
2014-02-19 08:27:00,38.3,28.9,29.38,SE,135,2.0,2.0,69,0.00,,,0.00,meteohub,2014-02-19 13:27:00,
2014-02-19 08:32:00,38.8,28.8,29.38,SE,135,2.0,2.0,67,0.00,,,0.00,meteohub,2014-02-19 13:32:00,
2014-02-19 08:37:00,38.3,28.2,29.38,SE,135,1.0,2.0,67,0.00,,,0.00,meteohub,2014-02-19 13:37:00,
2014-02-19 08:42:00,37.8,28.2,29.37,SE,135,2.0,3.0,68,0.00,,,0.00,meteohub,2014-02-19 13:42:00,
2014-02-19 08:47:00,37.0,27.5,29.37,East,90,2.0,3.0,68,0.00,,,0.00,meteohub,2014-02-19 13:47:00,
2014-02-19 08:52:00,36.5,27.7,29.38,SE,135,2.0,3.0,70,0.00,,,0.00,meteohub,2014-02-19 13:52:00,
2014-02-19 08:57:00,36.3,27.5,29.37,SE,135,0.0,2.0,70,0.00,,,0.00,meteohub,2014-02-19 13:57:00,
2014-02-19 09:02:00,35.6,27.5,29.38,SE,135,1.0,2.0,72,0.00,,,0.00,meteohub,2014-02-19 14:02:00,
2014-02-19 09:07:00,35.6,27.9,29.37,SE,135,2.0,2.0,73,0.01,,,0.01,meteohub,2014-02-19 14:07:00,
2014-02-19 09:12:00,35.4,28.6,29.36,SE,135,1.0,2.0,76,0.01,,,0.01,meteohub,2014-02-19 14:12:00,
2014-02-19 09:17:00,35.1,28.9,29.35,SE,135,2.0,2.0,78,0.04,,,0.04,meteohub,2014-02-19 14:17:00,
2014-02-19 09:22:00,34.3,29.5,29.36,South,180,2.0,2.0,82,0.04,,,0.04,meteohub,2014-02-19 14:22:00,
2014-02-19 09:27:00,34.2,29.3,29.35,SE,135,2.0,2.0,82,0.04,,,0.04,meteohub,2014-02-19 14:27:00,
2014-02-19 09:32:00,34.2,29.3,29.35,SE,135,2.0,2.0,82,0.04,,,0.04,meteohub,2014-02-19 14:32:00,
2014-02-19 09:37:00,33.8,29.5,29.34,NW,315,5.0,5.0,84,0.04,,,0.04,meteohub,2014-02-19 14:37:00,
2014-02-19 09:42:00,33.8,30.0,29.35,NW,315,4.0,5.0,86,0.04,,,0.04,meteohub,2014-02-19 14:42:00,
2014-02-19 09:47:00,33.8,30.0,29.35,NW,315,4.0,5.0,86,0.04,,,0.04,meteohub,2014-02-19 14:47:00,
2014-02-19 09:52:00,33.8,30.0,29.36,NW,315,4.0,5.0,86,0.04,,,0.04,meteohub,2014-02-19 14:52:00,
2014-02-19 16:42:00,54.0,39.0,29.26,SW,225,4.0,-999.0,57,-99.99,,,0.04,meteohub,2014-02-19 21:42:00,
2014-02-19 16:47:00,52.9,38.5,29.27,West,270,2.0,4.0,58,0.00,,,0.18,meteohub,2014-02-19 21:47:00,
2014-02-19 16:52:00,52.0,38.1,29.28,West,270,2.0,4.0,59,0.00,,,0.18,meteohub,2014-02-19 21:52:00,
2014-02-19 16:57:00,51.8,37.9,29.28,West,270,0.0,4.0,59,0.00,,,0.18,meteohub,2014-02-19 21:57:00,
2014-02-19 17:02:00,50.9,37.6,29.29,West,270,2.0,3.0,60,0.00,,,0.18,meteohub,2014-02-19 22:02:00,
2014-02-19 17:07:00,50.7,37.8,29.29,West,270,2.0,4.0,61,0.00,,,0.18,meteohub,2014-02-19 22:07:00,
2014-02-19 17:12:00,50.0,37.6,29.29,West,270,2.0,4.0,62,0.00,,,0.18,meteohub,2014-02-19 22:12:00,
2014-02-19 17:17:00,49.1,37.4,29.29,West,270,2.0,4.0,64,0.00,,,0.18,meteohub,2014-02-19 22:17:00,
2014-02-19 17:22:00,48.0,37.2,29.30,SW,225,3.0,4.0,66,0.00,,,0.18,meteohub,2014-02-19 22:22:00,
2014-02-19 17:27:00,46.9,36.9,29.30,SW,225,2.0,4.0,68,0.00,,,0.18,meteohub,2014-02-19 22:27:00,
2014-02-19 17:32:00,46.2,37.0,29.31,West,270,3.0,4.0,70,0.00,,,0.18,meteohub,2014-02-19 22:32:00,
2014-02-19 17:37:00,45.5,37.0,29.31,West,270,2.0,3.0,72,0.00,,,0.18,meteohub,2014-02-19 22:37:00,
2014-02-19 17:42:00,45.0,36.5,29.31,SW,225,2.0,3.0,72,0.00,,,0.18,meteohub,2014-02-19 22:42:00,
2014-02-19 17:47:00,44.6,37.2,29.31,SW,225,3.0,3.0,75,0.00,,,0.18,meteohub,2014-02-19 22:47:00,
2014-02-19 17:52:00,44.4,37.0,29.31,SW,225,2.0,3.0,75,0.00,,,0.18,meteohub,2014-02-19 22:52:00,
2014-02-19 17:57:00,44.1,36.7,29.32,SE,135,0.0,3.0,75,0.00,,,0.18,meteohub,2014-02-19 22:57:00,
2014-02-19 18:02:00,43.9,36.9,29.32,South,180,2.0,3.0,76,0.00,,,0.18,meteohub,2014-02-19 23:02:00,
2014-02-19 18:07:00,43.5,36.5,29.32,West,270,2.0,2.0,76,0.00,,,0.18,meteohub,2014-02-19 23:07:00,
2014-02-19 18:12:00,43.3,36.7,29.33,SW,225,1.0,2.0,77,0.00,,,0.18,meteohub,2014-02-19 23:12:00,
2014-02-19 18:17:00,43.2,36.5,29.33,SW,225,2.0,2.0,77,0.00,,,0.18,meteohub,2014-02-19 23:17:00,
2014-02-19 18:22:00,43.0,36.7,29.34,SW,225,2.0,2.0,78,0.00,,,0.18,meteohub,2014-02-19 23:22:00,
2014-02-19 18:27:00,43.0,36.7,29.34,SE,135,2.0,2.0,78,0.00,,,0.18,meteohub,2014-02-19 23:27:00,
2014-02-19 18:32:00,42.8,36.5,29.34,SW,225,2.0,2.0,78,0.00,,,0.18,meteohub,2014-02-19 23:32:00,
2014-02-19 18:37:00,43.0,36.7,29.35,West,270,2.0,4.0,78,0.00,,,0.18,meteohub,2014-02-19 23:37:00,
2014-02-19 18:42:00,42.8,36.7,29.35,West,270,2.0,4.0,79,0.00,,,0.18,meteohub,2014-02-19 23:42:00,
2014-02-19 18:47:00,42.8,36.7,29.36,SSW,203,3.0,4.0,79,0.00,,,0.18,meteohub,2014-02-19 23:47:00,
2014-02-19 18:52:00,42.6,36.5,29.36,SW,225,2.0,3.0,79,0.00,,,0.18,meteohub,2014-02-19 23:52:00,
2014-02-19 18:57:00,42.3,36.5,29.36,West,270,3.0,3.0,80,0.00,,,0.18,meteohub,2014-02-19 23:57:00,
2014-02-19 19:02:00,42.3,36.5,29.38,SW,225,2.0,4.0,80,0.00,,,0.18,meteohub,2014-02-20 00:02:00,
2014-02-19 19:07:00,41.9,36.1,29.38,SW,225,3.0,4.0,80,0.00,,,0.18,meteohub,2014-02-20 00:07:00,
2014-02-19 19:12:00,41.7,36.0,29.39,West,270,1.0,4.0,80,0.00,,,0.18,meteohub,2014-02-20 00:12:00,
2014-02-19 19:17:00,40.5,35.1,29.39,West,270,3.0,4.0,81,0.00,,,0.18,meteohub,2014-02-20 00:17:00,
2014-02-19 19:22:00,40.6,36.0,29.39,SW,225,3.0,4.0,83,0.00,,,0.18,meteohub,2014-02-20 00:22:00,
2014-02-19 19:27:00,41.5,37.0,29.40,West,270,4.0,4.0,84,0.00,,,0.18,meteohub,2014-02-20 00:27:00,
2014-02-19 19:32:00,41.9,37.0,29.41,West,270,6.0,6.0,83,0.00,,,0.18,meteohub,2014-02-20 00:32:00,
2014-02-19 19:37:00,42.1,36.7,29.42,West,270,5.0,7.0,81,0.00,,,0.18,meteohub,2014-02-20 00:37:00,
2014-02-19 19:42:00,42.3,36.5,29.41,NW,315,6.0,8.0,80,0.00,,,0.18,meteohub,2014-02-20 00:42:00,
2014-02-19 19:47:00,42.3,36.1,29.42,SW,225,7.0,8.0,79,0.00,,,0.18,meteohub,2014-02-20 00:47:00,
2014-02-19 19:52:00,42.6,36.0,29.42,West,270,8.0,8.0,77,0.00,,,0.18,meteohub,2014-02-20 00:52:00,
2014-02-19 19:57:00,42.6,36.0,29.43,NW,315,7.0,9.0,77,0.00,,,0.18,meteohub,2014-02-20 00:57:00,
2014-02-19 20:02:00,42.6,36.0,29.44,NW,315,7.0,9.0,77,0.00,,,0.18,meteohub,2014-02-20 01:02:00,
2014-02-19 20:07:00,43.2,35.1,29.44,West,270,9.0,9.0,73,0.00,,,0.18,meteohub,2014-02-20 01:07:00,
2014-02-19 20:12:00,43.3,34.5,29.44,WSW,248,11.0,11.0,71,0.00,,,0.18,meteohub,2014-02-20 01:12:00,
2014-02-19 20:17:00,43.7,34.2,29.44,West,270,11.0,14.0,69,0.00,,,0.18,meteohub,2014-02-20 01:17:00,
2014-02-19 20:22:00,43.7,33.8,29.45,NW,315,8.0,14.0,68,0.00,,,0.18,meteohub,2014-02-20 01:22:00,
2014-02-19 20:27:00,43.7,33.4,29.45,NW,315,10.0,14.0,67,0.00,,,0.18,meteohub,2014-02-20 01:27:00,
2014-02-19 20:32:00,43.9,33.3,29.46,West,270,8.0,14.0,66,0.00,,,0.18,meteohub,2014-02-20 01:32:00,
2014-02-19 20:37:00,43.7,33.1,29.46,West,270,7.0,13.0,66,0.00,,,0.18,meteohub,2014-02-20 01:37:00,
2014-02-19 20:42:00,44.1,32.7,29.46,NW,315,9.0,15.0,64,0.00,,,0.18,meteohub,2014-02-20 01:42:00,
2014-02-19 20:47:00,44.1,31.8,29.47,West,270,16.0,17.0,62,0.00,,,0.18,meteohub,2014-02-20 01:47:00,
2014-02-19 20:52:00,44.1,31.8,29.48,West,270,16.0,17.0,62,0.00,,,0.18,meteohub,2014-02-20 01:52:00,
2014-02-19 20:57:00,44.4,30.6,29.48,West,270,18.0,18.0,58,0.00,,,0.18,meteohub,2014-02-20 01:57:00,
2014-02-19 21:02:00,45.0,30.6,29.49,SW,225,15.0,18.0,57,0.00,,,0.18,meteohub,2014-02-20 02:02:00,
2014-02-19 21:07:00,45.0,30.6,29.49,SW,225,15.0,20.0,57,0.00,,,0.18,meteohub,2014-02-20 02:07:00,
2014-02-19 21:12:00,45.1,30.0,29.50,West,270,11.0,20.0,55,0.00,,,0.18,meteohub,2014-02-20 02:12:00,
2014-02-19 21:17:00,45.1,29.5,29.50,West,270,8.0,15.0,54,0.00,,,0.18,meteohub,2014-02-20 02:17:00,
2014-02-19 21:22:00,45.0,29.8,29.51,WSW,248,12.0,15.0,55,0.00,,,0.18,meteohub,2014-02-20 02:22:00,
2014-02-19 21:27:00,44.8,30.0,29.51,West,270,15.0,15.0,56,0.00,,,0.18,meteohub,2014-02-20 02:27:00,
2014-02-19 21:32:00,44.6,29.8,29.51,North,0,12.0,15.0,56,0.00,,,0.18,meteohub,2014-02-20 02:32:00,
2014-02-19 21:37:00,44.6,29.8,29.52,SW,225,8.0,15.0,56,0.00,,,0.18,meteohub,2014-02-20 02:37:00,
2014-02-19 21:42:00,44.4,29.7,29.51,South,180,10.0,15.0,56,0.00,,,0.18,meteohub,2014-02-20 02:42:00,
2014-02-19 21:47:00,44.2,29.5,29.52,SW,225,11.0,19.0,56,0.00,,,0.18,meteohub,2014-02-20 02:47:00,
2014-02-19 21:52:00,44.1,29.3,29.52,NW,315,8.0,19.0,56,0.00,,,0.18,meteohub,2014-02-20 02:52:00,
2014-02-19 21:57:00,44.1,29.3,29.53,West,270,8.0,19.0,56,0.00,,,0.18,meteohub,2014-02-20 02:57:00,
2014-02-19 22:02:00,43.9,29.1,29.53,West,270,17.0,17.0,56,0.00,,,0.18,meteohub,2014-02-20 03:02:00,
2014-02-19 22:07:00,43.9,29.1,29.53,West,270,17.0,17.0,56,0.00,,,0.18,meteohub,2014-02-20 03:07:00,
2014-02-19 22:12:00,43.7,29.1,29.54,NW,315,8.0,17.0,56,0.00,,,0.18,meteohub,2014-02-20 03:12:00,
2014-02-19 22:17:00,43.5,28.9,29.54,West,270,8.0,17.0,56,0.00,,,0.18,meteohub,2014-02-20 03:17:00,
2014-02-19 22:22:00,43.5,28.9,29.54,NW,315,4.0,17.0,56,0.00,,,0.18,meteohub,2014-02-20 03:22:00,
2014-02-19 22:27:00,43.3,28.8,29.55,WNW,293,7.0,13.0,56,0.00,,,0.18,meteohub,2014-02-20 03:27:00,
2014-02-19 22:32:00,43.2,28.6,29.55,SW,225,5.0,13.0,56,0.00,,,0.18,meteohub,2014-02-20 03:32:00,
2014-02-19 22:37:00,43.2,28.6,29.56,West,270,8.0,10.0,56,0.00,,,0.18,meteohub,2014-02-20 03:37:00,
2014-02-19 22:42:00,43.0,28.8,29.56,SW,225,4.0,10.0,57,0.00,,,0.18,meteohub,2014-02-20 03:42:00,
2014-02-19 22:47:00,42.8,28.6,29.56,West,270,11.0,11.0,57,0.00,,,0.18,meteohub,2014-02-20 03:47:00,
2014-02-19 22:52:00,42.6,28.4,29.57,West,270,4.0,11.0,57,0.00,,,0.18,meteohub,2014-02-20 03:52:00,
2014-02-19 22:57:00,42.3,28.6,29.58,WNW,293,7.0,11.0,58,0.00,,,0.18,meteohub,2014-02-20 03:57:00,
2014-02-19 23:02:00,42.3,28.0,29.58,NW,315,10.0,11.0,57,0.00,,,0.18,meteohub,2014-02-20 04:02:00,
2014-02-19 23:07:00,42.3,28.0,29.58,West,270,7.0,10.0,57,0.00,,,0.18,meteohub,2014-02-20 04:07:00,
2014-02-19 23:12:00,42.1,28.4,29.59,West,270,3.0,10.0,58,0.00,,,0.18,meteohub,2014-02-20 04:12:00,
2014-02-19 23:17:00,41.9,28.2,29.59,West,270,8.0,10.0,58,0.00,,,0.18,meteohub,2014-02-20 04:17:00,
2014-02-19 23:22:00,41.7,28.0,29.60,SW,225,7.0,10.0,58,0.00,,,0.18,meteohub,2014-02-20 04:22:00,
2014-02-19 23:27:00,41.7,28.0,29.60,West,270,6.0,10.0,58,0.00,,,0.18,meteohub,2014-02-20 04:27:00,
2014-02-19 23:32:00,41.7,28.0,29.60,West,270,8.0,9.0,58,0.00,,,0.18,meteohub,2014-02-20 04:32:00,
2014-02-19 23:37:00,41.5,27.9,29.61,West,270,5.0,9.0,58,0.00,,,0.18,meteohub,2014-02-20 04:37:00,
2014-02-19 23:42:00,41.4,27.7,29.61,NE,45,9.0,10.0,58,0.00,,,0.18,meteohub,2014-02-20 04:42:00,
2014-02-19 23:47:00,41.4,27.7,29.62,West,270,8.0,10.0,58,0.00,,,0.18,meteohub,2014-02-20 04:47:00,
2014-02-19 23:52:00,41.4,27.7,29.62,West,270,8.0,10.0,58,0.00,,,0.18,meteohub,2014-02-20 04:52:00,
2014-02-19 23:57:00,41.4,27.3,29.62,West,270,7.0,10.0,57,0.00,,,0.18,meteohub,2014-02-20 04:57:00,